createdAt,value
2018-10-07T00:02:01.123Z,16.03
2018-10-07T00:04:29.210Z,16.70
2018-10-07T00:06:57.289Z,16.73
2018-10-07T00:09:25.357Z,17.27
2018-10-07T00:11:53.434Z,18.53
2018-10-07T00:14:21.502Z,21.07
2018-10-07T00:16:49.927Z,20.30
2018-10-07T00:19:17.998Z,20.27
2018-10-07T00:21:46.082Z,21.83
2018-10-07T00:24:14.155Z,20.60
2018-10-07T00:26:42.243Z,21.50
2018-10-07T00:29:10.322Z,21.57
2018-10-07T00:31:43.726Z,21.10
2018-10-07T00:34:11.802Z,23.07
2018-10-07T00:36:39.881Z,21.70
2018-10-07T00:39:09.112Z,25.30
2018-10-07T00:41:37.191Z,24.90
2018-10-07T00:44:05.295Z,25.80
2018-10-07T00:46:33.849Z,22.80
2018-10-07T00:49:01.964Z,17.60
2018-10-07T00:51:30.063Z,16.53
2018-10-07T00:53:58.261Z,17.10
2018-10-07T00:56:26.547Z,18.10
2018-10-07T00:58:54.627Z,24.00
2018-10-07T01:01:22.722Z,22.77
2018-10-07T01:03:50.798Z,23.80
2018-10-07T01:06:18.895Z,25.80
2018-10-07T01:08:46.983Z,25.47
2018-10-07T01:11:15.080Z,24.07
2018-10-07T01:13:43.163Z,27.90
2018-10-07T01:16:11.253Z,28.60
2018-10-07T01:18:39.314Z,30.40
2018-10-07T01:21:07.394Z,30.93
2018-10-07T01:23:35.474Z,31.10
2018-10-07T01:26:03.730Z,31.97
2018-10-07T01:28:31.794Z,33.17
2018-10-07T01:30:59.882Z,33.93
2018-10-07T01:33:27.954Z,33.20
2018-10-07T01:35:56.026Z,37.87
2018-10-07T01:38:24.106Z,40.90
2018-10-07T01:40:52.187Z,40.87
2018-10-07T01:43:20.282Z,42.13
2018-10-07T01:45:48.362Z,40.60
2018-10-07T01:48:16.433Z,42.47
2018-10-07T01:50:44.518Z,42.17
2018-10-07T01:53:12.602Z,42.67
2018-10-07T01:55:40.678Z,42.00
2018-10-07T01:58:08.770Z,43.17
2018-10-07T02:00:36.846Z,45.00
2018-10-07T02:03:04.927Z,46.73
2018-10-07T02:05:33.002Z,46.33
2018-10-07T02:08:01.087Z,47.33
2018-10-07T02:10:29.178Z,48.37
2018-10-07T02:12:57.242Z,55.07
2018-10-07T02:15:25.333Z,49.43
2018-10-07T02:17:53.414Z,52.93
2018-10-07T02:20:21.491Z,57.57
2018-10-07T02:22:49.705Z,57.13
2018-10-07T02:25:17.781Z,55.10
2018-10-07T02:27:45.862Z,57.50
2018-10-07T02:30:13.938Z,58.73
2018-10-07T02:32:42.279Z,62.60
2018-10-07T02:35:10.374Z,71.87
2018-10-07T02:37:38.471Z,72.87
2018-10-07T02:40:06.555Z,78.30
2018-10-07T02:42:34.642Z,73.70
2018-10-07T02:45:02.723Z,78.10
2018-10-07T02:47:30.815Z,77.63
2018-10-07T02:49:58.887Z,86.37
2018-10-07T02:52:32.546Z,80.53
2018-10-07T02:55:00.638Z,79.70
2018-10-07T02:57:28.837Z,84.57
2018-10-07T02:59:56.931Z,87.40
2018-10-07T03:02:25.014Z,87.30
2018-10-07T03:04:53.098Z,92.30
2018-10-07T03:07:21.194Z,90.97
2018-10-07T03:09:49.262Z,86.97
2018-10-07T03:12:17.349Z,91.70
2018-10-07T03:14:45.427Z,85.73
2018-10-07T03:17:13.517Z,93.27
2018-10-07T03:19:41.609Z,96.17
2018-10-07T03:22:09.710Z,100.17
2018-10-07T03:24:37.795Z,99.27
2018-10-07T03:27:05.882Z,92.73
2018-10-07T03:29:34.053Z,92.77
2018-10-07T03:32:02.063Z,93.50
2018-10-07T03:34:30.142Z,98.73
2018-10-07T03:36:58.222Z,95.57
2018-10-07T03:39:26.315Z,97.90
2018-10-07T03:41:54.391Z,92.93
2018-10-07T03:44:22.491Z,94.93
2018-10-07T03:46:50.567Z,91.90
2018-10-07T03:49:18.650Z,98.97
2018-10-07T03:51:46.726Z,90.90
2018-10-07T03:54:14.811Z,93.20
2018-10-07T03:56:42.885Z,92.73
2018-10-07T03:59:11.090Z,96.23
2018-10-07T04:01:39.184Z,90.23
2018-10-07T04:04:07.259Z,90.03
2018-10-07T04:06:35.355Z,87.20
2018-10-07T04:09:04.394Z,92.17
2018-10-07T04:11:32.466Z,90.37
2018-10-07T04:14:00.547Z,83.50
2018-10-07T04:16:28.645Z,84.57
2018-10-07T04:18:56.723Z,89.20
2018-10-07T04:21:24.806Z,82.40
2018-10-07T04:23:52.881Z,86.93
2018-10-07T04:26:20.961Z,78.23
2018-10-07T04:28:49.054Z,82.27
2018-10-07T04:31:17.134Z,79.40
2018-10-07T04:33:45.226Z,79.00
2018-10-07T04:36:13.304Z,78.37
2018-10-07T04:38:41.402Z,75.37
2018-10-07T04:41:09.487Z,63.70
2018-10-07T04:43:37.578Z,61.87
2018-10-07T04:46:05.939Z,68.70
2018-10-07T04:48:34.122Z,65.70
2018-10-07T04:51:02.214Z,60.93
2018-10-07T04:53:30.325Z,58.93
2018-10-07T04:55:58.403Z,60.57
2018-10-07T04:58:26.490Z,58.40
2018-10-07T05:00:54.567Z,60.13
2018-10-07T05:03:23.513Z,57.07
2018-10-07T05:05:51.847Z,57.67
2018-10-07T05:08:19.951Z,60.50
2018-10-07T05:10:51.842Z,59.80
2018-10-07T05:13:23.084Z,67.83
2018-10-07T05:15:55.043Z,65.37
2018-10-07T05:18:23.282Z,63.53
2018-10-07T05:20:51.556Z,67.00
2018-10-07T05:23:19.626Z,71.97
2018-10-07T05:25:47.746Z,70.07
2018-10-07T05:28:16.070Z,69.90
2018-10-07T05:30:44.250Z,69.53
2018-10-07T05:33:12.369Z,62.57
2018-10-07T05:35:40.414Z,48.50
2018-10-07T05:38:08.506Z,49.33
2018-10-07T05:40:36.587Z,44.97
2018-10-07T05:43:04.662Z,40.77
2018-10-07T05:45:32.742Z,39.17
2018-10-07T05:48:00.814Z,33.03
2018-10-07T05:50:28.897Z,32.83
2018-10-07T05:52:56.978Z,33.20
2018-10-07T05:55:25.058Z,29.33
2018-10-07T05:58:03.575Z,21.13
2018-10-07T06:00:32.594Z,20.77
2018-10-07T06:04:08.347Z,21.40
2018-10-07T06:06:36.714Z,18.30
2018-10-07T06:09:07.095Z,19.03
2018-10-07T06:11:35.191Z,18.73
2018-10-07T06:14:03.279Z,15.90
2018-10-07T06:16:31.369Z,15.67
2018-10-07T06:18:59.458Z,14.20
2018-10-07T06:21:27.573Z,12.30
2018-10-07T06:23:55.610Z,13.07
2018-10-07T06:26:23.702Z,12.43
2018-10-07T06:28:51.795Z,11.07
2018-10-07T06:31:19.919Z,10.67
2018-10-07T06:33:48.039Z,10.50
2018-10-07T06:36:16.157Z,12.67
2018-10-07T06:38:44.304Z,11.00
2018-10-07T06:41:12.326Z,11.03
2018-10-07T06:43:40.403Z,10.67
2018-10-07T06:46:08.496Z,10.97
2018-10-07T06:48:36.568Z,10.10
2018-10-07T06:51:04.649Z,11.13
2018-10-07T06:53:32.730Z,10.00
2018-10-07T06:56:00.926Z,10.33
2018-10-07T06:58:29.007Z,10.40
2018-10-07T07:00:57.095Z,10.53
2018-10-07T07:03:25.190Z,10.40
2018-10-07T07:05:53.254Z,8.27
2018-10-07T07:08:21.334Z,8.30
2018-10-07T07:10:49.433Z,7.03
2018-10-07T07:13:17.519Z,8.20
2018-10-07T07:15:45.607Z,7.73
2018-10-07T07:18:13.687Z,7.00
2018-10-07T07:20:41.779Z,7.47
2018-10-07T07:23:09.859Z,7.90
2018-10-07T07:25:37.946Z,8.00
2018-10-07T07:28:06.019Z,7.10
2018-10-07T07:30:34.111Z,8.10
2018-10-07T07:33:02.183Z,7.07
2018-10-07T07:35:30.292Z,9.73
2018-10-07T07:37:58.375Z,8.40
2018-10-07T07:40:26.455Z,9.20
2018-10-07T07:42:54.522Z,8.13
2018-10-07T07:45:22.606Z,9.20
2018-10-07T07:47:50.682Z,8.73
2018-10-07T07:50:18.767Z,7.97
2018-10-07T07:52:46.844Z,8.20
2018-10-07T07:55:14.913Z,8.67
2018-10-07T07:57:42.992Z,8.40
2018-10-07T08:00:11.078Z,8.40
2018-10-07T08:02:39.146Z,9.10
2018-10-07T08:05:07.230Z,9.13
2018-10-07T08:07:35.299Z,8.20
2018-10-07T08:10:03.380Z,9.50
2018-10-07T08:12:31.463Z,7.70
2018-10-07T08:14:59.539Z,8.73
2018-10-07T08:17:27.691Z,7.70
2018-10-07T08:19:55.713Z,8.07
2018-10-07T08:22:23.786Z,6.87
2018-10-07T08:24:51.854Z,6.27
2018-10-07T08:27:19.970Z,5.00
2018-10-07T08:29:48.043Z,5.30
2018-10-07T08:32:16.147Z,5.60
2018-10-07T08:34:44.213Z,4.97
2018-10-07T08:37:13.374Z,4.30
2018-10-07T08:39:41.447Z,5.10
2018-10-07T08:42:09.526Z,5.60
2018-10-07T08:44:37.599Z,5.60
2018-10-07T08:47:05.680Z,6.53
2018-10-07T08:49:33.772Z,5.80
2018-10-07T08:52:02.056Z,5.47
2018-10-07T08:54:30.214Z,6.30
2018-10-07T08:56:58.294Z,5.07
2018-10-07T08:59:26.566Z,5.00
2018-10-07T09:01:54.858Z,6.43
2018-10-07T09:04:23.017Z,5.60
2018-10-07T09:06:51.102Z,5.00
2018-10-07T09:09:19.190Z,5.00
2018-10-07T09:11:47.263Z,5.07
2018-10-07T09:14:15.331Z,5.00
2018-10-07T09:16:43.414Z,6.13
2018-10-07T09:19:11.492Z,5.00
2018-10-07T09:21:39.575Z,5.20
2018-10-07T09:24:07.675Z,5.50
2018-10-07T09:26:35.843Z,5.60
2018-10-07T09:29:04.138Z,6.33
2018-10-07T09:31:32.530Z,5.67
2018-10-07T09:34:00.602Z,6.20
2018-10-07T09:36:28.670Z,6.10
2018-10-07T09:38:56.750Z,5.33
2018-10-07T09:41:24.875Z,6.33
2018-10-07T09:43:53.397Z,5.47
2018-10-07T09:46:21.486Z,6.40
2018-10-07T09:48:49.698Z,6.73
2018-10-07T09:51:17.782Z,5.40
2018-10-07T09:53:45.855Z,6.10
2018-10-07T09:56:14.047Z,6.70
2018-10-07T09:58:42.120Z,6.80
2018-10-07T10:01:10.286Z,6.50
2018-10-07T10:03:38.635Z,6.70
2018-10-07T10:06:06.686Z,6.60
2018-10-07T10:08:34.786Z,7.03
2018-10-07T10:11:03.043Z,5.80
2018-10-07T10:13:31.112Z,6.90
2018-10-07T10:15:59.201Z,6.43
2018-10-07T10:18:37.327Z,6.80
2018-10-07T10:21:09.790Z,5.47
2018-10-07T10:25:56.809Z,5.80
2018-10-07T10:28:33.538Z,6.40
2018-10-07T10:31:17.887Z,5.47
2018-10-07T10:34:50.991Z,5.40
2018-10-07T10:37:24.141Z,5.40
2018-10-07T10:39:54.815Z,4.80
2018-10-07T10:43:36.660Z,4.80
2018-10-07T10:46:11.186Z,4.10
2018-10-07T10:48:47.842Z,4.30
2018-10-07T10:51:23.014Z,3.37
2018-10-07T10:53:57.462Z,3.40
2018-10-07T10:56:29.494Z,3.33
2018-10-07T11:01:13.690Z,3.33
2018-10-07T11:03:51.667Z,2.27
2018-10-07T11:07:33.566Z,2.30
2018-10-07T11:10:25.082Z,2.77
2018-10-07T11:14:00.635Z,2.50
2018-10-07T11:16:35.810Z,2.57
2018-10-07T11:19:18.873Z,2.70
2018-10-07T11:21:55.099Z,3.10
2018-10-07T11:24:31.975Z,2.80
2018-10-07T11:27:06.372Z,2.60
2018-10-07T11:29:50.254Z,2.30
2018-10-07T11:32:31.874Z,1.80
2018-10-07T11:37:20.047Z,1.80
2018-10-07T11:39:55.467Z,1.40
2018-10-07T11:43:01.115Z,1.53
2018-10-07T11:45:31.472Z,1.20
2018-10-07T11:48:08.554Z,1.10
2018-10-07T11:50:45.139Z,1.40
2018-10-07T11:53:25.707Z,1.30
2018-10-07T11:55:53.782Z,1.30
2018-10-07T11:58:21.863Z,1.40
2018-10-07T12:00:49.947Z,1.10
2018-10-07T12:03:18.019Z,1.37
2018-10-07T12:05:46.098Z,1.30
2018-10-07T12:08:14.183Z,1.37
2018-10-07T12:10:42.247Z,1.80
2018-10-07T12:13:10.328Z,1.37
2018-10-07T12:15:38.397Z,1.60
2018-10-07T12:18:06.485Z,1.77
2018-10-07T12:20:34.566Z,1.50
2018-10-07T12:23:02.666Z,1.10
2018-10-07T12:25:30.733Z,1.00
2018-10-07T12:27:58.813Z,1.07
2018-10-07T12:30:26.887Z,1.30
2018-10-07T12:32:54.986Z,1.30
2018-10-07T12:35:23.134Z,1.30
2018-10-07T12:37:51.202Z,1.43
2018-10-07T12:40:19.265Z,1.17
2018-10-07T12:42:47.429Z,1.40
2018-10-07T12:45:15.419Z,1.10
2018-10-07T12:47:43.498Z,1.10
2018-10-07T12:50:11.566Z,0.90
2018-10-07T12:52:40.499Z,0.90
2018-10-07T12:55:08.582Z,0.80
2018-10-07T12:57:36.674Z,1.10
2018-10-07T13:00:04.854Z,1.30
2018-10-07T13:02:32.947Z,0.93
2018-10-07T13:05:01.022Z,1.10
2018-10-07T13:07:29.098Z,1.47
2018-10-07T13:09:57.184Z,1.03
2018-10-07T13:12:25.258Z,0.80
2018-10-07T13:14:53.333Z,1.07
2018-10-07T13:17:21.405Z,0.80
2018-10-07T13:19:49.477Z,1.20
2018-10-07T13:22:17.543Z,1.70
2018-10-07T13:24:45.741Z,1.30
2018-10-07T13:27:13.851Z,1.00
2018-10-07T13:29:42.170Z,1.20
2018-10-07T13:32:10.219Z,0.80
2018-10-07T13:34:38.295Z,1.10
2018-10-07T13:37:06.363Z,1.10
2018-10-07T13:39:34.443Z,0.90
2018-10-07T13:42:02.506Z,1.10
2018-10-07T13:44:30.582Z,0.90
2018-10-07T13:46:58.650Z,0.87
2018-10-07T13:49:33.474Z,0.90
2018-10-07T13:52:01.555Z,1.20
2018-10-07T13:54:29.647Z,0.97
2018-10-07T13:56:57.702Z,1.20
2018-10-07T13:59:25.787Z,1.00
2018-10-07T14:01:53.863Z,1.70
2018-10-07T14:04:21.937Z,1.17
2018-10-07T14:06:50.013Z,0.97
2018-10-07T14:09:18.075Z,1.50
2018-10-07T14:11:46.238Z,1.27
2018-10-07T14:14:14.343Z,1.47
2018-10-07T14:16:42.407Z,1.00
2018-10-07T14:19:10.563Z,1.33
2018-10-07T14:21:38.630Z,0.93
2018-10-07T14:24:06.740Z,0.90
2018-10-07T14:26:34.781Z,0.90
2018-10-07T14:29:02.902Z,1.00
2018-10-07T14:31:30.970Z,1.13
2018-10-07T14:33:59.050Z,0.80
2018-10-07T14:36:27.114Z,1.10
2018-10-07T14:38:55.210Z,0.80
2018-10-07T14:41:23.269Z,0.97
2018-10-07T14:43:51.366Z,1.53
2018-10-07T14:46:19.430Z,1.10
2018-10-07T14:48:47.522Z,1.20
2018-10-07T14:51:15.639Z,0.63
2018-10-07T14:53:43.731Z,0.97
2018-10-07T14:56:11.814Z,1.27
2018-10-07T14:58:40.063Z,0.80
2018-10-07T15:01:08.238Z,1.13
2018-10-07T15:03:36.509Z,0.70
2018-10-07T15:06:04.586Z,0.60
2018-10-07T15:08:32.668Z,0.73
2018-10-07T15:11:00.746Z,0.73
2018-10-07T15:13:28.953Z,0.90
2018-10-07T15:15:57.022Z,0.70
2018-10-07T15:18:25.090Z,1.03
2018-10-07T15:20:53.170Z,0.93
2018-10-07T15:23:21.262Z,0.67
2018-10-07T15:25:49.609Z,0.60
2018-10-07T15:28:17.819Z,0.50
2018-10-07T15:30:45.923Z,0.70
2018-10-07T15:33:13.999Z,0.80
2018-10-07T15:35:42.161Z,0.60
2018-10-07T15:38:10.239Z,0.67
2018-10-07T15:40:38.542Z,0.40
2018-10-07T15:43:06.618Z,0.60
2018-10-07T15:45:34.691Z,0.50
2018-10-07T15:48:02.761Z,0.60
2018-10-07T15:50:30.835Z,0.63
2018-10-07T15:52:59.114Z,0.80
2018-10-07T15:55:27.330Z,0.70
2018-10-07T15:57:55.394Z,0.53
2018-10-07T16:00:23.471Z,0.80
2018-10-07T16:02:51.552Z,0.53
2018-10-07T16:05:19.882Z,0.80
2018-10-07T16:07:48.157Z,0.73
2018-10-07T16:10:16.222Z,0.70
2018-10-07T16:12:44.282Z,0.43
2018-10-07T16:15:12.366Z,0.40
2018-10-07T16:17:40.459Z,0.50
2018-10-07T16:20:08.783Z,0.50
2018-10-07T16:22:37.251Z,0.50
2018-10-07T16:25:05.350Z,0.50
2018-10-07T16:27:33.446Z,0.70
2018-10-07T16:30:01.535Z,0.50
2018-10-07T16:32:29.853Z,0.53
2018-10-07T16:34:58.138Z,0.60
2018-10-07T16:37:26.238Z,0.57
2018-10-07T16:39:54.310Z,0.70
2018-10-07T16:42:22.389Z,0.50
2018-10-07T16:44:50.486Z,0.50
2018-10-07T16:47:18.754Z,0.60
2018-10-07T16:49:47.757Z,0.63
2018-10-07T16:52:15.866Z,0.70
2018-10-07T16:54:43.926Z,0.90
2018-10-07T16:57:12.017Z,0.70
2018-10-07T16:59:40.155Z,1.20
2018-10-07T17:02:08.310Z,1.10
2018-10-07T17:04:36.377Z,1.00
2018-10-07T17:07:04.446Z,1.03
2018-10-07T17:09:32.513Z,1.30
2018-10-07T17:12:00.626Z,1.20
2018-10-07T17:14:28.829Z,0.70
2018-10-07T17:16:56.906Z,1.13
2018-10-07T17:19:24.974Z,2.33
2018-10-07T17:21:53.246Z,3.33
2018-10-07T17:24:21.340Z,2.70
2018-10-07T17:26:49.962Z,3.00
2018-10-07T17:29:18.091Z,5.90
2018-10-07T17:31:46.182Z,5.40
2018-10-07T17:34:14.247Z,4.03
2018-10-07T17:36:42.330Z,6.67
2018-10-07T17:39:11.327Z,6.27
2018-10-07T17:41:40.046Z,3.93
2018-10-07T17:44:08.362Z,2.23
2018-10-07T17:46:36.432Z,5.60
2018-10-07T17:49:04.676Z,1.37
2018-10-07T17:51:32.579Z,1.10
2018-10-07T17:54:00.671Z,0.80
2018-10-07T17:56:28.846Z,0.60
2018-10-07T17:58:56.969Z,0.63
2018-10-07T18:01:25.119Z,1.70
2018-10-07T18:03:53.182Z,1.33
2018-10-07T18:06:21.258Z,1.03
2018-10-07T18:08:49.381Z,0.60
2018-10-07T18:11:17.455Z,1.17
2018-10-07T18:13:45.610Z,0.90
2018-10-07T18:16:13.687Z,0.80
2018-10-07T18:18:41.766Z,1.00
2018-10-07T18:21:09.852Z,0.57
2018-10-07T18:23:38.068Z,0.70
2018-10-07T18:26:06.346Z,0.53
2018-10-07T18:28:34.426Z,1.20
2018-10-07T18:31:02.498Z,0.90
2018-10-07T18:33:30.642Z,1.00
2018-10-07T18:35:58.725Z,1.70
2018-10-07T18:38:26.817Z,1.60
2018-10-07T18:40:54.939Z,1.70
2018-10-07T18:43:23.002Z,1.77
2018-10-07T18:45:51.066Z,1.60
2018-10-07T18:48:19.171Z,1.03
2018-10-07T18:50:47.318Z,1.40
2018-10-07T18:53:15.405Z,1.20
2018-10-07T18:55:43.473Z,0.80
2018-10-07T18:58:11.626Z,0.90
2018-10-07T19:00:39.734Z,1.00
2018-10-07T19:03:07.835Z,0.80
2018-10-07T19:05:35.905Z,0.90
2018-10-07T19:08:03.982Z,1.07
2018-10-07T19:10:32.075Z,0.80
2018-10-07T19:13:00.150Z,0.93
2018-10-07T19:15:28.238Z,0.80
2018-10-07T19:17:56.318Z,1.30
2018-10-07T19:20:24.474Z,1.40
2018-10-07T19:22:52.574Z,1.20
2018-10-07T19:25:20.644Z,1.20
2018-10-07T19:27:48.782Z,1.33
2018-10-07T19:30:16.889Z,1.10
2018-10-07T19:32:44.970Z,1.17
2018-10-07T19:35:13.203Z,1.20
2018-10-07T19:37:41.283Z,0.77
2018-10-07T19:40:09.402Z,0.93
2018-10-07T19:42:37.468Z,0.90
2018-10-07T19:45:05.724Z,0.87
2018-10-07T19:47:33.715Z,0.67
2018-10-07T19:50:01.774Z,1.17
2018-10-07T19:52:29.895Z,0.90
2018-10-07T19:54:58.034Z,0.90
2018-10-07T19:57:26.133Z,0.80
2018-10-07T19:59:54.186Z,1.07
2018-10-07T20:02:22.305Z,1.00
2018-10-07T20:04:50.422Z,1.33
2018-10-07T20:07:18.753Z,1.00
2018-10-07T20:09:46.822Z,0.80
2018-10-07T20:12:14.998Z,0.70
2018-10-07T20:14:43.119Z,1.03
2018-10-07T20:17:11.188Z,1.00
2018-10-07T20:19:39.323Z,0.90
2018-10-07T20:22:12.582Z,1.20
2018-10-07T20:24:40.678Z,1.00
2018-10-07T20:27:08.904Z,1.10
2018-10-07T20:29:36.983Z,1.03
2018-10-07T20:32:05.148Z,0.80
2018-10-07T20:34:33.419Z,0.90
2018-10-07T20:37:01.490Z,1.13
2018-10-07T20:39:29.573Z,1.20
2018-10-07T20:41:57.680Z,0.80
2018-10-07T20:44:25.811Z,1.10
2018-10-07T20:46:53.964Z,1.23
2018-10-07T20:49:22.139Z,0.97
2018-10-07T20:51:53.280Z,1.27
2018-10-07T20:54:18.282Z,1.20
2018-10-07T20:56:46.375Z,1.33
2018-10-07T20:59:14.466Z,1.47
2018-10-07T21:01:42.530Z,1.20
2018-10-07T21:04:10.698Z,1.37
2018-10-07T21:06:38.768Z,0.93
2018-10-07T21:09:08.791Z,1.00
2018-10-07T21:11:36.854Z,1.20
2018-10-07T21:14:04.938Z,1.00
2018-10-07T21:16:33.093Z,1.10
2018-10-07T21:19:01.170Z,1.03
2018-10-07T21:21:29.245Z,1.33
2018-10-07T21:23:57.322Z,1.20
2018-10-07T21:26:25.394Z,1.03
2018-10-07T21:28:53.472Z,0.90
2018-10-07T21:31:21.558Z,1.57
2018-10-07T21:33:49.630Z,1.10
2018-10-07T21:36:17.703Z,1.00
2018-10-07T21:38:45.779Z,0.90
2018-10-07T21:41:13.867Z,0.93
2018-10-07T21:43:41.952Z,1.30
2018-10-07T21:46:10.372Z,0.88
2018-10-07T21:48:38.454Z,1.30
2018-10-07T21:51:06.534Z,1.13
2018-10-07T21:53:34.610Z,0.90
2018-10-07T21:56:02.780Z,0.90
2018-10-07T21:58:31.851Z,1.20
2018-10-07T22:00:59.918Z,1.53
2018-10-07T22:03:27.987Z,1.40
2018-10-07T22:05:56.051Z,0.87
2018-10-07T22:08:24.134Z,1.40
2018-10-07T22:10:52.198Z,1.10
2018-10-07T22:13:20.269Z,1.50
2018-10-07T22:15:48.343Z,1.40
2018-10-07T22:18:16.430Z,1.10
2018-10-07T22:20:44.511Z,1.43
2018-10-07T22:23:12.590Z,1.47
2018-10-07T22:25:40.674Z,0.87
2018-10-07T22:28:08.759Z,1.07
2018-10-07T22:30:36.827Z,1.30
2018-10-07T22:33:04.898Z,1.37
2018-10-07T22:35:32.988Z,1.40
2018-10-07T22:38:01.043Z,1.20
2018-10-07T22:40:29.112Z,1.10
2018-10-07T22:42:57.174Z,1.23
2018-10-07T22:45:25.251Z,1.10
2018-10-07T22:47:53.335Z,1.10
2018-10-07T22:50:21.418Z,1.40
2018-10-07T22:52:49.473Z,1.20
2018-10-07T22:55:17.544Z,0.93
2018-10-07T22:57:45.610Z,0.90
2018-10-07T23:00:13.751Z,0.90
2018-10-07T23:02:41.762Z,1.13
2018-10-07T23:05:09.857Z,1.10
2018-10-07T23:07:37.930Z,1.40
2018-10-07T23:10:06.207Z,1.27
2018-10-07T23:12:34.313Z,0.90
2018-10-07T23:15:02.342Z,1.10
2018-10-07T23:17:30.430Z,1.10
2018-10-07T23:19:58.511Z,1.17
2018-10-07T23:22:26.582Z,1.20
2018-10-07T23:24:54.671Z,1.00
2018-10-07T23:27:22.738Z,1.40
2018-10-07T23:29:50.820Z,1.25
2018-10-07T23:32:18.907Z,1.70
2018-10-07T23:34:46.975Z,1.35
2018-10-07T23:37:15.099Z,1.30
2018-10-07T23:39:43.126Z,3.42
2018-10-07T23:42:11.203Z,3.70
2018-10-07T23:44:39.276Z,2.17
2018-10-07T23:47:07.355Z,3.50
2018-10-07T23:49:35.443Z,3.30
2018-10-07T23:52:03.618Z,3.80
2018-10-07T23:54:31.598Z,1.50
2018-10-07T23:56:59.683Z,1.80
2018-10-07T23:59:27.758Z,1.35
